createdAt,value
2024-01-21T00:00:41.336Z,96444.50
2024-01-21T00:03:10.923Z,96443.63
2024-01-21T00:05:38.977Z,96438.72
2024-01-21T00:08:07.618Z,96441.88
2024-01-21T00:10:35.588Z,96445.97
2024-01-21T00:13:03.506Z,96440.84
2024-01-21T00:15:31.490Z,96435.25
2024-01-21T00:17:59.551Z,96434.94
2024-01-21T00:20:31.826Z,96433.19
2024-01-21T00:22:59.855Z,96431.03
2024-01-21T00:25:27.787Z,96432.91
2024-01-21T00:27:55.776Z,96431.69
2024-01-21T00:30:23.829Z,96435.16
2024-01-21T00:32:52.265Z,96425.66
2024-01-21T00:35:20.473Z,96425.66
2024-01-21T00:37:49.801Z,96417.81
2024-01-21T00:40:17.986Z,96427.69
2024-01-21T00:42:45.946Z,96432.19
2024-01-21T00:45:14.173Z,96432.59
2024-01-21T00:47:42.200Z,96432.19
2024-01-21T00:50:10.751Z,96425.69
2024-01-21T00:52:38.738Z,96412.47
2024-01-21T00:55:08.785Z,96412.84
2024-01-21T00:57:36.813Z,96411.88
2024-01-21T01:00:05.794Z,96414.47
2024-01-21T01:02:34.036Z,96408.22
2024-01-21T01:05:02.134Z,96410.56
2024-01-21T01:07:30.176Z,96416.81
2024-01-21T01:09:58.341Z,96416.78
2024-01-21T01:12:28.124Z,96416.13
2024-01-21T01:14:56.038Z,96414.88
2024-01-21T01:17:23.979Z,96419.56
2024-01-21T01:19:52.030Z,96416.91
2024-01-21T01:22:20.106Z,96409.09
2024-01-21T01:24:48.160Z,96413.06
2024-01-21T01:27:16.221Z,96408.53
2024-01-21T01:29:45.715Z,96404.91
2024-01-21T01:32:13.685Z,96404.09
2024-01-21T01:34:41.684Z,96401.78
2024-01-21T01:37:10.222Z,96395.22
2024-01-21T01:39:38.225Z,96400.91
2024-01-21T01:42:06.675Z,96399.97
2024-01-21T01:44:34.668Z,96398.56
2024-01-21T01:47:04.056Z,96400.63
2024-01-21T01:49:33.095Z,96395.13
2024-01-21T01:52:01.276Z,96391.84
2024-01-21T01:54:31.302Z,96390.44
2024-01-21T01:57:00.306Z,96389.94
2024-01-21T01:59:32.109Z,96383.78
2024-01-21T02:02:00.606Z,96386.13
2024-01-21T02:04:30.478Z,96376.31
2024-01-21T02:06:58.493Z,96374.28
2024-01-21T02:09:26.885Z,96376.63
2024-01-21T02:11:54.867Z,96369.75
2024-01-21T02:14:22.884Z,96371.63
2024-01-21T02:16:50.838Z,96357.50
2024-01-21T02:19:28.432Z,96364.13
2024-01-21T02:21:58.042Z,96362.69
2024-01-21T02:24:31.532Z,96361.41
2024-01-21T02:27:00.317Z,96360.69
2024-01-21T02:29:28.689Z,96368.31
2024-01-21T02:31:59.290Z,96368.59
2024-01-21T02:34:27.338Z,96374.53
2024-01-21T02:36:55.399Z,96368.28
2024-01-21T02:39:23.471Z,96367.25
2024-01-21T02:41:52.754Z,96361.97
2024-01-21T02:44:20.825Z,96366.75
2024-01-21T02:46:48.715Z,96364.34
2024-01-21T02:49:17.956Z,96378.09
2024-01-21T02:51:46.106Z,96369.66
2024-01-21T02:54:14.170Z,96374.69
2024-01-21T02:56:42.204Z,96370.88
2024-01-21T02:59:11.522Z,96367.91
2024-01-21T03:01:39.569Z,96374.97
2024-01-21T03:04:07.601Z,96383.50
2024-01-21T03:06:35.667Z,96385.53
2024-01-21T03:09:04.445Z,96388.00
2024-01-21T03:11:33.539Z,96391.19
2024-01-21T03:14:01.533Z,96396.19
2024-01-21T03:16:30.848Z,96396.19
2024-01-21T03:18:58.786Z,96398.22
2024-01-21T03:21:26.801Z,96395.97
2024-01-21T03:23:54.732Z,96396.78
2024-01-21T03:26:22.646Z,96391.66
2024-01-21T03:28:50.606Z,96388.91
2024-01-21T03:31:19.816Z,96390.34
2024-01-21T03:33:49.321Z,96385.94
2024-01-21T03:36:17.399Z,96386.13
2024-01-21T03:38:46.852Z,96385.72
2024-01-21T03:41:14.898Z,96378.06
2024-01-21T03:43:43.126Z,96378.38
2024-01-21T03:46:11.110Z,96378.69
2024-01-21T03:48:39.265Z,96375.59
2024-01-21T03:51:11.671Z,96387.00
2024-01-21T03:53:40.400Z,96396.09
2024-01-21T03:56:08.688Z,96397.41
2024-01-21T03:58:36.985Z,96389.81
2024-01-21T04:01:05.520Z,96400.38
2024-01-21T04:03:35.137Z,96392.38
2024-01-21T04:06:03.147Z,96394.75
2024-01-21T04:08:32.531Z,96389.63
2024-01-21T04:11:00.503Z,96387.06
2024-01-21T04:13:28.390Z,96389.72
2024-01-21T04:15:56.453Z,96394.53
2024-01-21T04:18:24.484Z,96391.97
2024-01-21T04:20:52.577Z,96391.25
2024-01-21T04:23:20.583Z,96388.59
2024-01-21T04:25:51.212Z,96398.81
2024-01-21T04:28:19.464Z,96392.19
2024-01-21T04:30:47.466Z,96392.88
2024-01-21T04:33:15.531Z,96395.00
2024-01-21T04:35:43.543Z,96396.03
2024-01-21T04:38:11.473Z,96405.53
2024-01-21T04:40:40.226Z,96404.09
2024-01-21T04:43:09.504Z,96400.00
2024-01-21T04:45:37.438Z,96387.69
2024-01-21T04:48:06.270Z,96386.25
2024-01-21T04:50:34.296Z,96384.63
2024-01-21T04:53:02.206Z,96385.53
2024-01-21T04:55:30.261Z,96377.88
2024-01-21T04:57:58.283Z,96377.03
2024-01-21T05:00:27.627Z,96381.25
2024-01-21T05:02:55.605Z,96380.91
2024-01-21T05:05:23.522Z,96384.47
2024-01-21T05:07:52.994Z,96373.53
2024-01-21T05:10:21.132Z,96378.56
2024-01-21T05:12:49.211Z,96378.56
2024-01-21T05:15:17.388Z,96375.34
2024-01-21T05:17:46.745Z,96394.09
2024-01-21T05:20:14.830Z,96401.00
2024-01-21T05:22:42.869Z,96400.84
2024-01-21T05:25:10.917Z,96399.72
2024-01-21T05:27:38.948Z,96391.97
2024-01-21T05:30:08.283Z,96397.78
2024-01-21T05:32:36.315Z,96387.25
2024-01-21T05:35:07.676Z,96382.16
2024-01-21T05:37:35.697Z,96371.53
2024-01-21T05:40:05.405Z,96378.34
2024-01-21T05:42:33.632Z,96369.25
2024-01-21T05:45:01.668Z,96381.59
2024-01-21T05:47:29.643Z,96380.28
2024-01-21T05:49:57.676Z,96387.13
2024-01-21T05:52:27.213Z,96386.22
2024-01-21T05:54:55.254Z,96386.84
2024-01-21T05:57:23.267Z,96383.16
2024-01-21T05:59:51.351Z,96381.25
2024-01-21T06:02:19.488Z,96380.13
2024-01-21T06:04:47.612Z,96377.66
2024-01-21T06:07:15.738Z,96379.03
2024-01-21T06:09:46.833Z,96385.28
2024-01-21T06:12:14.899Z,96378.31
2024-01-21T06:14:42.869Z,96380.59
2024-01-21T06:17:10.920Z,96373.63
2024-01-21T06:19:39.993Z,96368.44
2024-01-21T06:22:07.959Z,96369.31
2024-01-21T06:24:36.815Z,96371.16
2024-01-21T06:27:06.731Z,96370.34
2024-01-21T06:29:34.659Z,96368.59
2024-01-21T06:32:02.634Z,96374.75
2024-01-21T06:34:30.671Z,96383.25
2024-01-21T06:36:58.676Z,96387.31
2024-01-21T06:39:26.632Z,96388.78
2024-01-21T06:41:54.769Z,96385.41
2024-01-21T06:44:24.045Z,96393.59
2024-01-21T06:46:51.973Z,96389.19
2024-01-21T06:49:20.012Z,96398.50
2024-01-21T06:51:54.698Z,96390.94
2024-01-21T06:54:22.960Z,96395.31
2024-01-21T06:56:51.253Z,96400.16
2024-01-21T06:59:19.208Z,96403.41
2024-01-21T07:01:48.548Z,96406.19
2024-01-21T07:04:16.883Z,96394.50
2024-01-21T07:06:45.011Z,96399.72
2024-01-21T07:09:15.091Z,96401.75
2024-01-21T07:11:43.631Z,96398.38
2024-01-21T07:14:11.731Z,96404.91
2024-01-21T07:16:39.705Z,96405.34
2024-01-21T07:19:09.101Z,96397.72
2024-01-21T07:21:37.132Z,96389.72
2024-01-21T07:24:05.559Z,96392.38
2024-01-21T07:26:33.662Z,96390.84
2024-01-21T07:29:01.689Z,96390.53
2024-01-21T07:31:29.666Z,96386.56
2024-01-21T07:33:57.850Z,96386.91
2024-01-21T07:36:27.368Z,96397.19
2024-01-21T07:38:55.392Z,96388.09
2024-01-21T07:41:23.414Z,96392.28
2024-01-21T07:43:51.415Z,96406.59
2024-01-21T07:46:19.462Z,96404.97
2024-01-21T07:48:47.554Z,96415.00
2024-01-21T07:51:16.785Z,96410.78
2024-01-21T07:53:46.457Z,96417.09
2024-01-21T07:56:14.453Z,96417.03
2024-01-21T07:58:42.970Z,96426.19
2024-01-21T08:01:13.043Z,96418.97
2024-01-21T08:03:42.179Z,96416.53
2024-01-21T08:06:11.389Z,96410.63
2024-01-21T08:08:39.600Z,96410.59
2024-01-21T08:11:08.959Z,96415.44
2024-01-21T08:13:37.000Z,96410.16
2024-01-21T08:16:05.435Z,96416.16
2024-01-21T08:18:37.649Z,96415.34
2024-01-21T08:21:06.338Z,96415.56
2024-01-21T08:23:35.508Z,96407.41
2024-01-21T08:26:05.297Z,96411.13
2024-01-21T08:28:34.938Z,96412.16
2024-01-21T08:31:04.510Z,96417.81
2024-01-21T08:33:32.581Z,96427.03
2024-01-21T08:36:00.577Z,96420.69
2024-01-21T08:38:28.668Z,96414.22
2024-01-21T08:40:56.733Z,96414.56
2024-01-21T08:43:24.795Z,96411.66
2024-01-21T08:45:54.781Z,96420.84
2024-01-21T08:48:23.836Z,96426.91
2024-01-21T08:50:52.304Z,96440.84
2024-01-21T08:53:22.013Z,96428.91
2024-01-21T08:55:50.032Z,96424.41
2024-01-21T08:58:18.112Z,96436.38
2024-01-21T09:00:46.251Z,96426.91
2024-01-21T09:03:15.943Z,96428.16
2024-01-21T09:05:44.192Z,96430.66
2024-01-21T09:08:12.398Z,96432.13
2024-01-21T09:10:40.291Z,96428.56
2024-01-21T09:13:09.538Z,96439.47
2024-01-21T09:15:37.710Z,96443.06
2024-01-21T09:18:06.326Z,96437.25
2024-01-21T09:20:35.692Z,96439.47
2024-01-21T09:23:03.720Z,96442.50
2024-01-21T09:25:31.798Z,96442.88
2024-01-21T09:27:59.919Z,96436.84
2024-01-21T09:30:28.282Z,96431.28
2024-01-21T09:32:56.346Z,96434.84
2024-01-21T09:35:24.579Z,96427.03
2024-01-21T09:37:54.001Z,96431.03
2024-01-21T09:40:22.737Z,96429.56
2024-01-21T09:42:51.964Z,96420.63
2024-01-21T09:45:23.722Z,96420.28
2024-01-21T09:47:55.319Z,96415.53
2024-01-21T09:50:25.613Z,96418.06
2024-01-21T09:52:56.846Z,96419.53
2024-01-21T09:55:24.963Z,96419.50
2024-01-21T09:57:55.436Z,96413.50
2024-01-21T10:00:23.985Z,96414.34
2024-01-21T10:02:53.311Z,96423.66
2024-01-21T10:05:21.881Z,96416.59
2024-01-21T10:07:52.234Z,96423.03
2024-01-21T10:10:21.581Z,96417.16
2024-01-21T10:12:49.849Z,96419.66
2024-01-21T10:15:19.230Z,96406.88
2024-01-21T10:17:47.354Z,96405.47
2024-01-21T10:20:15.624Z,96398.78
2024-01-21T10:22:45.519Z,96397.16
2024-01-21T10:25:15.498Z,96391.25
2024-01-21T10:27:47.278Z,96391.84
2024-01-21T10:30:15.790Z,96399.22
2024-01-21T10:32:45.314Z,96401.53
2024-01-21T10:35:13.652Z,96400.34
2024-01-21T10:37:42.599Z,96400.06
2024-01-21T10:40:11.688Z,96397.34
2024-01-21T10:42:42.032Z,96401.84
2024-01-21T10:45:12.571Z,96409.66
2024-01-21T10:47:43.134Z,96413.00
2024-01-21T10:50:12.689Z,96429.66
2024-01-21T10:52:45.691Z,96419.41
2024-01-21T10:55:14.186Z,96436.63
2024-01-21T10:57:44.028Z,96441.13
2024-01-21T11:00:16.141Z,96439.56
2024-01-21T11:03:04.260Z,96434.19
2024-01-21T11:05:32.399Z,96443.25
2024-01-21T11:08:03.153Z,96439.59
2024-01-21T11:10:31.701Z,96442.91
2024-01-21T11:12:59.726Z,96451.34
2024-01-21T11:15:32.257Z,96441.09
2024-01-21T11:18:12.936Z,96444.44
2024-01-21T11:20:41.389Z,96439.72
2024-01-21T11:23:18.139Z,96440.28
2024-01-21T11:25:52.449Z,96444.78
2024-01-21T11:28:31.185Z,96431.72
2024-01-21T11:31:05.114Z,96431.38
2024-01-21T11:33:33.390Z,96435.22
2024-01-21T11:36:02.153Z,96435.91
2024-01-21T11:38:30.529Z,96442.84
2024-01-21T11:41:04.973Z,96434.03
2024-01-21T11:43:35.872Z,96447.25
2024-01-21T11:46:06.770Z,96448.91
2024-01-21T11:48:34.808Z,96447.75
2024-01-21T11:51:02.739Z,96447.97
2024-01-21T11:53:30.694Z,96448.84
2024-01-21T11:55:58.740Z,96441.59
2024-01-21T11:58:26.783Z,96436.38
2024-01-21T12:00:55.121Z,96429.38
2024-01-21T12:03:24.618Z,96428.97
2024-01-21T12:05:53.108Z,96421.34
2024-01-21T12:08:21.594Z,96408.63
2024-01-21T12:10:50.563Z,96400.31
2024-01-21T12:13:18.548Z,96407.13
2024-01-21T12:15:51.258Z,96406.19
2024-01-21T12:18:19.525Z,96410.59
2024-01-21T12:20:49.272Z,96405.81
2024-01-21T12:23:20.862Z,96404.63
2024-01-21T12:25:50.321Z,96402.28
2024-01-21T12:28:19.871Z,96412.22
2024-01-21T12:30:49.054Z,96415.13
2024-01-21T12:33:17.552Z,96410.59
2024-01-21T12:35:45.540Z,96404.22
2024-01-21T12:38:16.205Z,96411.34
2024-01-21T12:40:45.454Z,96418.28
2024-01-21T12:43:17.391Z,96423.78
2024-01-21T12:45:45.582Z,96427.66
2024-01-21T12:48:14.332Z,96434.97
2024-01-21T12:50:43.912Z,96438.06
2024-01-21T12:53:11.861Z,96435.81
2024-01-21T12:55:41.351Z,96439.34
2024-01-21T12:58:11.317Z,96440.78
2024-01-21T13:00:40.836Z,96435.75
2024-01-21T13:03:09.071Z,96432.28
2024-01-21T13:05:37.151Z,96426.59
2024-01-21T13:08:07.563Z,96427.41
2024-01-21T13:10:35.684Z,96420.34
2024-01-21T13:13:05.321Z,96420.66
2024-01-21T13:15:33.368Z,96421.16
2024-01-21T13:18:01.915Z,96425.94
2024-01-21T13:20:30.128Z,96423.63
2024-01-21T13:22:58.060Z,96422.75
2024-01-21T13:25:26.071Z,96432.41
2024-01-21T13:28:07.622Z,96434.66
2024-01-21T13:30:45.190Z,96441.47
2024-01-21T13:33:14.971Z,96438.00
2024-01-21T13:35:44.780Z,96442.09
2024-01-21T13:38:16.499Z,96444.38
2024-01-21T13:40:44.927Z,96435.34
2024-01-21T13:43:12.920Z,96432.69
2024-01-21T13:45:42.360Z,96426.09
2024-01-21T13:48:12.059Z,96433.81
2024-01-21T13:50:44.238Z,96438.28
2024-01-21T13:53:15.468Z,96430.16
2024-01-21T13:55:44.408Z,96436.19
2024-01-21T13:58:13.789Z,96433.28
2024-01-21T14:00:43.124Z,96442.47
2024-01-21T14:03:11.377Z,96448.34
2024-01-21T14:05:40.239Z,96450.06
2024-01-21T14:08:08.667Z,96441.78
2024-01-21T14:10:36.711Z,96446.66
2024-01-21T14:13:05.159Z,96453.22
2024-01-21T14:15:33.216Z,96428.72
2024-01-21T14:18:05.687Z,96420.88
2024-01-21T14:20:33.712Z,96420.25
2024-01-21T14:23:02.120Z,96412.59
2024-01-21T14:25:38.209Z,96423.06
2024-01-21T14:28:06.906Z,96429.16
2024-01-21T14:30:36.703Z,96422.03
2024-01-21T14:33:06.541Z,96420.41
2024-01-21T14:35:35.141Z,96415.72
2024-01-21T14:38:03.698Z,96428.84
2024-01-21T14:40:31.852Z,96423.34
2024-01-21T14:43:00.131Z,96426.47
2024-01-21T14:45:28.447Z,96421.00
2024-01-21T14:47:56.858Z,96419.09
2024-01-21T14:50:26.527Z,96414.38
2024-01-21T14:52:54.634Z,96420.28
2024-01-21T14:55:22.622Z,96422.94
2024-01-21T14:57:51.109Z,96423.63
2024-01-21T15:00:19.929Z,96421.72
2024-01-21T15:02:48.096Z,96419.97
2024-01-21T15:05:16.301Z,96415.28
2024-01-21T15:07:48.914Z,96428.19
2024-01-21T15:10:17.601Z,96426.88
2024-01-21T15:12:46.596Z,96407.69
2024-01-21T15:15:27.539Z,96410.66
2024-01-21T15:17:56.120Z,96421.91
2024-01-21T15:20:25.179Z,96423.56
2024-01-21T15:22:54.608Z,96426.31
2024-01-21T15:25:22.582Z,96425.88
2024-01-21T15:27:50.684Z,96421.22
2024-01-21T15:30:19.055Z,96423.56
2024-01-21T15:32:47.440Z,96429.09
2024-01-21T15:35:15.680Z,96417.84
2024-01-21T15:37:43.704Z,96421.84
2024-01-21T15:40:13.598Z,96421.38
2024-01-21T15:42:42.640Z,96414.06
2024-01-21T15:45:11.867Z,96415.38
2024-01-21T15:47:40.200Z,96408.28
2024-01-21T15:50:09.482Z,96412.72
2024-01-21T15:52:38.024Z,96429.63
2024-01-21T15:55:07.151Z,96430.78
2024-01-21T15:57:36.573Z,96433.41
2024-01-21T16:00:05.461Z,96425.56
2024-01-21T16:02:35.328Z,96441.38
2024-01-21T16:05:03.913Z,96433.88
2024-01-21T16:07:32.107Z,96441.03
2024-01-21T16:10:00.419Z,96448.16
2024-01-21T16:12:30.294Z,96446.03
2024-01-21T16:14:59.801Z,96448.41
2024-01-21T16:17:27.862Z,96459.94
2024-01-21T16:19:55.935Z,96459.22
2024-01-21T16:22:24.314Z,96467.81
2024-01-21T16:24:53.029Z,96461.69
2024-01-21T16:27:26.963Z,96472.63
2024-01-21T16:30:02.607Z,96466.09
2024-01-21T16:32:31.012Z,96475.22
2024-01-21T16:35:01.505Z,96479.44
2024-01-21T16:37:30.647Z,96485.13
2024-01-21T16:39:59.567Z,96488.31
2024-01-21T16:42:27.832Z,96501.75
2024-01-21T16:44:56.001Z,96502.88
2024-01-21T16:47:25.388Z,96506.38
2024-01-21T16:49:53.528Z,96512.09
2024-01-21T16:52:28.394Z,96513.59
2024-01-21T16:54:56.501Z,96516.13
2024-01-21T16:57:25.041Z,96508.56
2024-01-21T17:00:04.613Z,96500.19
2024-01-21T17:02:34.356Z,96490.25
2024-01-21T17:05:02.601Z,96486.41
2024-01-21T17:07:31.217Z,96482.91
2024-01-21T17:10:00.553Z,96494.00
2024-01-21T17:12:37.410Z,96500.78
2024-01-21T17:15:06.209Z,96498.56
2024-01-21T17:17:35.941Z,96492.88
2024-01-21T17:20:06.104Z,96495.38
2024-01-21T17:22:34.117Z,96503.13
2024-01-21T17:25:02.132Z,96496.03
2024-01-21T17:27:33.471Z,96490.47
2024-01-21T17:30:01.712Z,96488.44
2024-01-21T17:32:29.997Z,96485.19
2024-01-21T17:34:59.452Z,96484.69
2024-01-21T17:37:27.552Z,96465.03
2024-01-21T17:39:55.686Z,96468.50
2024-01-21T17:42:23.668Z,96467.59
2024-01-21T17:44:53.171Z,96459.03
2024-01-21T17:47:22.229Z,96452.78
2024-01-21T17:49:50.354Z,96455.75
2024-01-21T17:52:19.736Z,96452.38
2024-01-21T17:54:47.750Z,96454.84
2024-01-21T17:57:15.887Z,96451.34
2024-01-21T17:59:43.918Z,96443.72
2024-01-21T18:02:12.416Z,96449.44
2024-01-21T18:04:40.482Z,96454.03
2024-01-21T18:07:08.553Z,96460.94
2024-01-21T18:09:37.977Z,96452.38
2024-01-21T18:12:09.935Z,96469.19
2024-01-21T18:14:39.003Z,96463.25
2024-01-21T18:17:07.133Z,96465.00
2024-01-21T18:19:39.280Z,96467.94
2024-01-21T18:22:12.935Z,96478.22
2024-01-21T18:24:43.606Z,96464.19
2024-01-21T18:27:11.727Z,96473.19
2024-01-21T18:29:39.860Z,96471.84
2024-01-21T18:32:08.758Z,96465.00
2024-01-21T18:34:37.215Z,96457.31
2024-01-21T18:37:06.079Z,96460.81
2024-01-21T18:39:35.170Z,96459.84
2024-01-21T18:42:04.813Z,96458.88
2024-01-21T18:44:33.142Z,96454.06
2024-01-21T18:47:01.565Z,96448.75
2024-01-21T18:49:31.072Z,96454.88
2024-01-21T18:52:04.520Z,96450.81
2024-01-21T18:54:34.786Z,96458.75
2024-01-21T18:57:06.244Z,96452.38
2024-01-21T18:59:34.395Z,96449.41
2024-01-21T19:02:02.483Z,96444.13
2024-01-21T19:04:35.670Z,96443.69
2024-01-21T19:07:09.638Z,96447.69
2024-01-21T19:09:37.916Z,96442.53
2024-01-21T19:12:09.044Z,96443.56
2024-01-21T19:14:37.933Z,96444.53
2024-01-21T19:17:06.095Z,96440.28
2024-01-21T19:19:34.380Z,96432.63
2024-01-21T19:22:02.562Z,96437.09
2024-01-21T19:24:30.686Z,96444.13
2024-01-21T19:26:58.749Z,96436.44
2024-01-21T19:29:28.241Z,96432.47
2024-01-21T19:31:56.548Z,96430.75
2024-01-21T19:34:24.758Z,96430.47
2024-01-21T19:36:55.575Z,96430.97
2024-01-21T19:39:24.153Z,96429.22
2024-01-21T19:41:52.418Z,96426.47
2024-01-21T19:44:20.561Z,96428.25
2024-01-21T19:46:50.062Z,96422.31
2024-01-21T19:49:18.182Z,96418.97
2024-01-21T19:51:46.921Z,96422.88
2024-01-21T19:54:17.735Z,96423.19
2024-01-21T19:56:46.609Z,96425.34
2024-01-21T19:59:15.082Z,96426.97
2024-01-21T20:01:45.233Z,96427.38
2024-01-21T20:04:15.805Z,96428.03
2024-01-21T20:06:44.537Z,96419.31
2024-01-21T20:09:13.364Z,96429.31
2024-01-21T20:11:42.555Z,96426.59
2024-01-21T20:14:10.853Z,96412.91
2024-01-21T20:16:40.057Z,96421.38
2024-01-21T20:19:08.585Z,96413.06
2024-01-21T20:21:38.712Z,96406.91
2024-01-21T20:24:07.656Z,96408.25
2024-01-21T20:26:36.075Z,96409.59
2024-01-21T20:29:04.267Z,96416.00
2024-01-21T20:31:32.306Z,96410.16
2024-01-21T20:34:00.776Z,96408.63
2024-01-21T20:36:28.934Z,96412.03
2024-01-21T20:38:58.329Z,96413.81
2024-01-21T20:41:26.436Z,96409.22
2024-01-21T20:43:54.526Z,96407.19
2024-01-21T20:46:23.422Z,96403.28
2024-01-21T20:48:51.738Z,96402.59
2024-01-21T20:51:19.858Z,96406.13
2024-01-21T20:53:50.126Z,96397.69
2024-01-21T20:56:21.520Z,96385.06
2024-01-21T20:58:49.898Z,96381.28
2024-01-21T21:01:18.358Z,96381.28
2024-01-21T21:03:46.495Z,96374.22
2024-01-21T21:06:14.613Z,96363.19
2024-01-21T21:08:44.433Z,96371.22
2024-01-21T21:11:13.131Z,96359.78
2024-01-21T21:13:43.040Z,96358.81
2024-01-21T21:16:11.705Z,96355.97
2024-01-21T21:18:39.891Z,96357.28
2024-01-21T21:21:08.039Z,96349.69
2024-01-21T21:23:36.059Z,96350.78
2024-01-21T21:26:04.056Z,96343.94
2024-01-21T21:28:32.075Z,96340.34
2024-01-21T21:31:01.422Z,96336.38
2024-01-21T21:33:29.475Z,96338.66
2024-01-21T21:35:58.407Z,96337.03
2024-01-21T21:38:26.608Z,96335.53
2024-01-21T21:40:54.638Z,96332.13
2024-01-21T21:43:22.625Z,96333.78
2024-01-21T21:45:51.694Z,96330.25
2024-01-21T21:48:21.482Z,96331.88
2024-01-21T21:50:50.004Z,96336.09
2024-01-21T21:53:18.371Z,96325.06
2024-01-21T21:55:48.037Z,96327.34
2024-01-21T21:58:16.256Z,96331.44
2024-01-21T22:00:44.590Z,96337.13
2024-01-21T22:03:13.026Z,96341.72
2024-01-21T22:05:42.719Z,96341.06
2024-01-21T22:08:11.109Z,96332.44
2024-01-21T22:10:39.191Z,96332.84
2024-01-21T22:13:07.601Z,96334.63
2024-01-21T22:15:36.935Z,96329.06
2024-01-21T22:18:05.100Z,96322.25
2024-01-21T22:20:33.193Z,96317.66
2024-01-21T22:23:03.115Z,96320.13
2024-01-21T22:25:31.169Z,96313.25
2024-01-21T22:27:59.100Z,96313.28
2024-01-21T22:30:27.730Z,96310.75
2024-01-21T22:32:56.494Z,96303.56
2024-01-21T22:35:24.693Z,96297.84
2024-01-21T22:37:52.754Z,96287.66
2024-01-21T22:40:22.123Z,96292.25
2024-01-21T22:42:50.114Z,96293.16
2024-01-21T22:45:18.380Z,96277.59
2024-01-21T22:47:47.396Z,96263.22
2024-01-21T22:50:16.185Z,96261.31
2024-01-21T22:52:44.235Z,96264.06
2024-01-21T22:55:13.536Z,96265.94
2024-01-21T22:57:42.891Z,96259.03
2024-01-21T23:00:15.846Z,96243.63
2024-01-21T23:02:43.959Z,96238.88
2024-01-21T23:05:12.701Z,96233.72
2024-01-21T23:07:40.718Z,96228.78
2024-01-21T23:10:09.798Z,96231.34
2024-01-21T23:12:37.753Z,96236.72
2024-01-21T23:15:08.405Z,96239.50
2024-01-21T23:17:36.539Z,96244.34
2024-01-21T23:20:05.381Z,96243.72
2024-01-21T23:22:33.816Z,96238.28
2024-01-21T23:25:01.750Z,96241.94
2024-01-21T23:27:29.812Z,96241.19
2024-01-21T23:29:57.806Z,96235.25
2024-01-21T23:32:27.227Z,96230.13
2024-01-21T23:34:55.205Z,96226.06
2024-01-21T23:37:24.195Z,96226.47
2024-01-21T23:39:52.163Z,96227.34
2024-01-21T23:42:20.169Z,96229.69
2024-01-21T23:44:48.163Z,96228.63
2024-01-21T23:47:16.176Z,96226.16
2024-01-21T23:49:45.611Z,96235.00
2024-01-21T23:52:13.736Z,96231.75
2024-01-21T23:54:42.774Z,96227.25
2024-01-21T23:57:11.056Z,96228.78
2024-01-21T23:59:39.476Z,96222.25
